Time;durP1;ratioP1;P1;durP2;ratioP2;P2;SDS_P1;SDS_P2;PMS_P1;PMS_P2;Temp;Humidity;BMP_temperature;BMP_pressure;BME280_temperature;BME280_humidity;BME280_pressure;Samples;Min_cycle;Max_cycle;Signal;HPM_P1;HPM_P2
2023/03/19 04:02:22;;;;;;;16.93;15.53;;;8.20;99.90;;;;;;5037928;23;20570;-74
2023/03/19 04:04:47;;;;;;;30.70;28.67;;;8.10;99.90;;;;;;4935595;29;20175;-74
2023/03/19 04:07:13;;;;;;;38.67;36.23;;;8.00;99.90;;;;;;4935813;29;20269;-74
2023/03/19 04:09:40;;;;;;;24.10;22.43;;;7.90;99.90;;;;;;4935955;29;20190;-74
2023/03/19 04:12:07;;;;;;;10.37;9.47;;;7.90;99.90;;;;;;4918961;29;20255;-75
2023/03/19 04:14:33;;;;;;;15.83;14.40;;;7.80;99.90;;;;;;4915841;29;20187;-74
2023/03/19 04:16:59;;;;;;;19.13;16.87;;;7.80;99.90;;;;;;4917557;29;20183;-75
2023/03/19 04:19:26;;;;;;;21.73;19.90;;;7.90;99.90;;;;;;4915735;29;20318;-74
2023/03/19 04:21:51;;;;;;;25.77;24.10;;;7.90;99.90;;;;;;4916813;29;20203;-75
2023/03/19 04:24:17;;;;;;;20.47;18.40;;;7.90;99.90;;;;;;4915359;29;20247;-76
2023/03/19 04:26:45;;;;;;;26.37;24.33;;;7.90;99.90;;;;;;4917236;29;20671;-74
2023/03/19 04:29:12;;;;;;;21.60;20.10;;;8.00;99.90;;;;;;4915589;29;20210;-74
2023/03/19 04:31:38;;;;;;;22.00;20.47;;;8.00;99.90;;;;;;4916452;29;20675;-74
2023/03/19 04:34:05;;;;;;;26.67;24.90;;;8.00;99.90;;;;;;4915520;29;20191;-75
2023/03/19 04:36:32;;;;;;;33.80;31.70;;;7.90;99.90;;;;;;4914725;29;20194;-75
2023/03/19 04:38:58;;;;;;;28.93;26.80;;;7.90;99.90;;;;;;4915661;29;20203;-74
2023/03/19 04:41:25;;;;;;;26.33;24.33;;;7.90;99.90;;;;;;4914942;29;20229;-74
2023/03/19 04:43:50;;;;;;;23.40;21.77;;;8.00;99.90;;;;;;4915270;29;20191;-74
2023/03/19 04:46:16;;;;;;;23.37;21.63;;;8.10;99.90;;;;;;4916463;29;20188;-75
2023/03/19 04:48:42;;;;;;;24.30;22.50;;;8.00;99.90;;;;;;4915374;29;20561;-74
2023/03/19 04:51:08;;;;;;;25.33;23.50;;;8.00;99.90;;;;;;4916321;29;20248;-74
2023/03/19 04:53:36;;;;;;;29.77;27.57;;;8.00;99.90;;;;;;4915210;29;20214;-74
2023/03/19 04:56:03;;;;;;;25.33;23.60;;;8.00;99.90;;;;;;4915279;29;20560;-74
2023/03/19 04:58:29;;;;;;;28.20;25.77;;;7.90;99.90;;;;;;4914627;29;20214;-74
2023/03/19 05:00:55;;;;;;;22.80;21.07;;;7.90;99.90;;;;;;4915651;29;20304;-75
2023/03/19 05:03:21;;;;;;;21.70;20.20;;;8.00;99.90;;;;;;4914893;29;20284;-75
2023/03/19 05:05:48;;;;;;;18.03;16.20;;;8.00;99.90;;;;;;4916110;29;20719;-74
2023/03/19 05:08:13;;;;;;;15.10;13.97;;;8.10;99.90;;;;;;4911195;29;20283;-74
2023/03/19 05:10:39;;;;;;;14.10;12.70;;;8.00;99.90;;;;;;4915086;29;20298;-75
2023/03/19 05:13:06;;;;;;;16.93;13.23;;;7.90;99.90;;;;;;4915879;29;20308;-74
2023/03/19 05:15:32;;;;;;;12.77;11.53;;;8.00;99.90;;;;;;4914222;29;20937;-74
2023/03/19 05:17:58;;;;;;;14.20;12.90;;;8.00;99.90;;;;;;4914304;29;20207;-75
2023/03/19 05:20:25;;;;;;;15.57;14.17;;;8.10;99.90;;;;;;4914075;29;20666;-74
2023/03/19 05:22:52;;;;;;;14.17;12.50;;;8.10;99.90;;;;;;4915340;29;20214;-76
2023/03/19 05:25:18;;;;;;;14.40;12.63;;;8.10;99.90;;;;;;4914039;29;20179;-78
2023/03/19 05:27:45;;;;;;;16.93;15.30;;;8.10;99.90;;;;;;4915094;29;20278;-75
2023/03/19 05:30:11;;;;;;;17.30;15.53;;;8.10;99.90;;;;;;4913684;29;20183;-75
2023/03/19 05:32:39;;;;;;;16.50;15.20;;;8.10;99.90;;;;;;4915529;29;20190;-75
2023/03/19 05:35:05;;;;;;;17.43;16.10;;;8.10;99.90;;;;;;4914026;29;20182;-75
2023/03/19 05:37:32;;;;;;;18.90;17.43;;;8.10;99.90;;;;;;4915276;29;20870;-75
2023/03/19 05:39:58;;;;;;;20.47;18.33;;;8.20;99.90;;;;;;4914666;29;20274;-70
2023/03/19 05:42:24;;;;;;;18.80;17.47;;;8.20;99.90;;;;;;4915385;29;20286;-70
2023/03/19 05:44:50;;;;;;;18.43;16.83;;;8.30;99.90;;;;;;4914793;29;20190;-70
2023/03/19 05:47:16;;;;;;;18.77;17.47;;;8.30;99.90;;;;;;4913906;29;20671;-71
2023/03/19 05:49:42;;;;;;;20.73;18.40;;;8.30;99.90;;;;;;4914409;29;20242;-70
2023/03/19 05:52:08;;;;;;;21.93;20.33;;;8.30;99.90;;;;;;4913608;29;20766;-70
2023/03/19 05:54:34;;;;;;;14.00;12.80;;;8.40;99.90;;;;;;4914493;29;20186;-70
2023/03/19 05:57:01;;;;;;;13.07;11.87;;;8.40;99.90;;;;;;4913648;29;20191;-70
2023/03/19 05:59:27;;;;;;;14.73;12.90;;;8.40;99.90;;;;;;4914175;29;20217;-69
2023/03/19 06:01:53;;;;;;;14.00;11.27;;;8.40;99.90;;;;;;4913473;29;20254;-70
2023/03/19 06:04:19;;;;;;;11.13;10.10;;;8.40;99.90;;;;;;4914942;29;20257;-69
2023/03/19 06:06:44;;;;;;;12.27;11.03;;;8.40;99.90;;;;;;4913551;29;20556;-70
2023/03/19 06:09:10;;;;;;;11.00;10.10;;;8.40;99.90;;;;;;4912836;29;20175;-70
2023/03/19 06:11:39;;;;;;;12.03;10.90;;;8.40;99.90;;;;;;4913599;29;20622;-70
2023/03/19 06:14:06;;;;;;;13.37;12.17;;;8.50;99.90;;;;;;4914602;29;20190;-71
2023/03/19 06:16:32;;;;;;;12.70;11.23;;;8.50;99.90;;;;;;4914532;29;20267;-70
2023/03/19 06:18:58;;;;;;;12.57;11.37;;;8.50;99.90;;;;;;4914196;29;20282;-70
2023/03/19 06:21:28;;;;;;;12.20;11.00;;;8.50;99.90;;;;;;4914459;29;20706;-69
2023/03/19 06:23:55;;;;;;;15.13;13.07;;;8.50;99.90;;;;;;4914326;29;20586;-71
2023/03/19 06:26:22;;;;;;;13.10;11.97;;;8.60;99.90;;;;;;4914825;29;20183;-70
2023/03/19 06:28:47;;;;;;;12.93;11.73;;;8.60;99.90;;;;;;4914367;29;20187;-69
2023/03/19 06:31:15;;;;;;;11.97;10.40;;;8.70;99.90;;;;;;4914109;29;20209;-69
2023/03/19 06:33:41;;;;;;;13.10;11.73;;;8.70;99.90;;;;;;4914400;29;20289;-69
2023/03/19 06:36:07;;;;;;;11.87;10.67;;;8.60;99.90;;;;;;4914591;29;20201;-70
2023/03/19 06:38:34;;;;;;;12.73;10.53;;;8.60;99.90;;;;;;4913867;29;20222;-70
2023/03/19 06:41:00;;;;;;;11.83;10.67;;;8.50;99.90;;;;;;4915168;29;20275;-71
2023/03/19 06:43:26;;;;;;;16.70;14.73;;;8.60;99.90;;;;;;4915799;29;20237;-71
2023/03/19 06:45:52;;;;;;;15.60;14.40;;;8.60;99.90;;;;;;4914767;29;20213;-71
2023/03/19 06:48:18;;;;;;;12.23;11.00;;;8.70;99.90;;;;;;4915476;29;20261;-71
2023/03/19 06:50:47;;;;;;;26.73;24.33;;;8.70;99.90;;;;;;4914998;29;20787;-70
2023/03/19 06:53:14;;;;;;;21.43;19.80;;;8.90;99.90;;;;;;4913043;29;20283;-70
2023/03/19 06:55:39;;;;;;;19.37;17.87;;;8.90;99.90;;;;;;4914538;29;20529;-70
2023/03/19 06:58:05;;;;;;;18.70;17.30;;;9.00;99.90;;;;;;4914503;29;20210;-70
2023/03/19 07:00:32;;;;;;;15.13;12.57;;;9.10;99.90;;;;;;4914553;29;20725;-70
2023/03/19 07:02:58;;;;;;;13.33;12.10;;;9.10;99.90;;;;;;4918346;29;20608;-69
2023/03/19 07:05:24;;;;;;;11.63;10.60;;;9.20;99.90;;;;;;4918001;29;20183;-70
2023/03/19 07:07:50;;;;;;;18.87;17.20;;;9.30;99.90;;;;;;4917464;29;20266;-70
2023/03/19 07:10:20;;;;;;;23.00;21.33;;;9.40;99.90;;;;;;4917609;29;20793;-69
2023/03/19 07:12:46;;;;;;;26.13;24.27;;;9.50;99.90;;;;;;4916826;29;20190;-70
2023/03/19 07:15:12;;;;;;;24.67;22.67;;;9.60;99.90;;;;;;4916411;29;20183;-70
2023/03/19 07:17:38;;;;;;;27.87;25.83;;;9.70;99.90;;;;;;4917998;29;20221;-70
2023/03/19 07:20:04;;;;;;;27.67;25.77;;;9.80;99.90;;;;;;4916084;29;20634;-70
2023/03/19 07:22:29;;;;;;;27.07;25.07;;;9.90;99.90;;;;;;4917655;29;20238;-70
2023/03/19 07:24:55;;;;;;;14.17;12.43;;;10.00;99.90;;;;;;4917804;29;20656;-71
2023/03/19 07:27:21;;;;;;;11.97;10.77;;;10.10;99.90;;;;;;4917910;29;20203;-70
2023/03/19 07:29:47;;;;;;;12.27;11.17;;;10.10;99.90;;;;;;4917175;29;20188;-71
2023/03/19 07:32:13;;;;;;;11.10;10.00;;;10.20;99.90;;;;;;4918530;29;20270;-70
2023/03/19 07:34:39;;;;;;;13.60;12.17;;;10.30;99.90;;;;;;4918187;29;20652;-71
2023/03/19 07:37:05;;;;;;;12.07;10.87;;;10.30;99.90;;;;;;4917954;29;20191;-70
2023/03/19 07:39:31;;;;;;;15.07;11.20;;;10.40;99.90;;;;;;4917485;29;20301;-70
2023/03/19 07:41:57;;;;;;;13.03;11.83;;;10.50;99.90;;;;;;4917411;29;20650;-70
2023/03/19 07:44:23;;;;;;;29.10;27.17;;;10.70;99.90;;;;;;4915994;29;20250;-70
2023/03/19 07:46:49;;;;;;;30.73;28.50;;;10.80;99.90;;;;;;4916436;29;20678;-70
2023/03/19 07:49:16;;;;;;;23.63;22.00;;;10.90;99.90;;;;;;4915871;29;20226;-70
2023/03/19 07:51:41;;;;;;;26.57;24.60;;;11.10;99.90;;;;;;4916008;29;20220;-70
2023/03/19 07:54:07;;;;;;;17.13;15.73;;;11.10;99.90;;;;;;4916373;29;20187;-70
2023/03/19 07:56:33;;;;;;;11.63;10.63;;;11.30;99.90;;;;;;4917159;29;20191;-71
2023/03/19 07:58:59;;;;;;;10.63;9.53;;;11.40;99.90;;;;;;4915460;29;20246;-71
2023/03/19 08:01:25;;;;;;;11.90;10.80;;;11.40;99.90;;;;;;4915706;29;20225;-71
2023/03/19 08:03:51;;;;;;;11.53;10.43;;;11.40;99.90;;;;;;4915715;29;20180;-70
2023/03/19 08:06:17;;;;;;;12.03;11.03;;;11.50;99.90;;;;;;4915936;29;20191;-72
2023/03/19 08:08:42;;;;;;;11.20;10.03;;;11.50;99.90;;;;;;4915710;29;20224;-73
2023/03/19 08:11:08;;;;;;;10.90;9.87;;;11.50;99.90;;;;;;4916719;29;20215;-70
2023/03/19 08:13:34;;;;;;;11.80;8.70;;;11.60;99.90;;;;;;4916811;29;20260;-69
2023/03/19 08:16:00;;;;;;;8.47;7.63;;;11.60;99.90;;;;;;4916943;29;20187;-70
2023/03/19 08:18:26;;;;;;;10.93;10.10;;;11.70;99.90;;;;;;4916483;29;20347;-70
2023/03/19 08:20:52;;;;;;;15.00;13.93;;;11.90;99.90;;;;;;4915343;29;20207;-70
2023/03/19 08:23:18;;;;;;;23.73;22.30;;;12.00;99.90;;;;;;4915612;29;20190;-70
2023/03/19 08:25:44;;;;;;;9.93;9.13;;;12.20;99.90;;;;;;4916672;29;20643;-71
2023/03/19 08:28:10;;;;;;;15.60;14.63;;;12.40;99.90;;;;;;4915473;29;20281;-70
2023/03/19 08:30:37;;;;;;;23.03;21.53;;;12.50;99.90;;;;;;4916399;29;20211;-70
2023/03/19 08:33:03;;;;;;;15.83;14.80;;;12.70;99.90;;;;;;4915142;29;20182;-70
2023/03/19 08:35:29;;;;;;;9.97;9.10;;;12.90;99.90;;;;;;4916280;29;20195;-69
2023/03/19 08:37:55;;;;;;;9.53;8.73;;;13.10;99.90;;;;;;4916454;29;20183;-70
2023/03/19 08:40:22;;;;;;;11.33;9.17;;;13.20;99.90;;;;;;4916407;29;20187;-69
2023/03/19 08:42:48;;;;;;;11.07;10.33;;;13.40;99.90;;;;;;4916032;29;20183;-70
2023/03/19 08:45:15;;;;;;;25.97;24.47;;;13.40;99.90;;;;;;4916770;29;20176;-69
2023/03/19 08:47:41;;;;;;;30.83;29.07;;;13.30;99.90;;;;;;4915019;29;20193;-69
2023/03/19 08:50:09;;;;;;;54.07;50.83;;;13.20;99.90;;;;;;4915731;29;20653;-70
2023/03/19 08:52:35;;;;;;;28.97;27.20;;;13.30;99.90;;;;;;4916036;29;20201;-69
2023/03/19 08:55:00;;;;;;;25.30;23.87;;;13.40;99.90;;;;;;4916279;29;20194;-69
2023/03/19 08:57:26;;;;;;;14.80;14.00;;;13.50;99.90;;;;;;4915718;29;20238;-69
2023/03/19 08:59:52;;;;;;;13.53;12.53;;;13.60;99.90;;;;;;4915771;29;20283;-71
2023/03/19 09:02:19;;;;;;;11.07;10.27;;;13.60;99.90;;;;;;4915796;29;20218;-71
2023/03/19 09:04:45;;;;;;;9.63;9.00;;;13.70;99.90;;;;;;4915821;29;20675;-70
2023/03/19 09:07:12;;;;;;;7.67;7.17;;;13.90;99.90;;;;;;4916253;29;20656;-70
2023/03/19 09:09:38;;;;;;;6.13;5.83;;;13.90;99.90;;;;;;4915721;29;20223;-70
2023/03/19 09:12:06;;;;;;;6.70;6.20;;;13.90;99.90;;;;;;4915564;29;20226;-70
2023/03/19 09:14:35;;;;;;;6.33;5.83;;;13.90;99.90;;;;;;4914967;29;20218;-70
2023/03/19 09:17:01;;;;;;;6.70;6.17;;;14.00;99.90;;;;;;4915498;29;20188;-70
2023/03/19 09:19:27;;;;;;;8.17;7.50;;;14.10;99.90;;;;;;4915213;29;20258;-70
2023/03/19 09:21:53;;;;;;;9.73;9.03;;;14.10;99.90;;;;;;4915618;29;20203;-70
2023/03/19 09:24:19;;;;;;;10.47;9.60;;;14.10;99.90;;;;;;4915713;29;20218;-71
2023/03/19 09:26:45;;;;;;;10.03;9.47;;;14.10;99.90;;;;;;4914952;29;20215;-70
2023/03/19 09:29:12;;;;;;;11.47;10.43;;;14.10;99.90;;;;;;4914033;29;20619;-70
2023/03/19 09:31:38;;;;;;;11.37;10.67;;;14.20;99.90;;;;;;4913619;29;20742;-69
2023/03/19 09:34:06;;;;;;;12.23;11.43;;;14.20;99.90;;;;;;4914389;29;20191;-70
2023/03/19 09:36:32;;;;;;;13.53;12.43;;;14.40;99.90;;;;;;4915493;29;20221;-69
2023/03/19 09:38:58;;;;;;;7.70;7.10;;;14.70;99.90;;;;;;4913799;29;20211;-70
2023/03/19 09:41:36;;;;;;;6.73;6.23;;;14.90;99.90;;;;;;4910518;29;20242;-70
2023/03/19 09:44:09;;;;;;;8.63;8.03;;;15.40;99.90;;;;;;4913846;29;20198;-70
2023/03/19 09:47:17;;;;;;;15.63;14.77;;;16.30;99.90;;;;;;4912418;29;20277;-72
2023/03/19 09:49:47;;;;;;;17.30;16.07;;;17.30;99.90;;;;;;4915015;29;20217;-71
2023/03/19 09:52:46;;;;;;;42.77;40.60;;;18.10;99.90;;;;;;4913774;29;20352;-71
2023/03/19 09:55:30;;;;;;;8.30;7.60;;;18.80;99.90;;;;;;4914842;29;20195;-71
2023/03/19 09:57:57;;;;;;;10.10;9.60;;;19.70;99.90;;;;;;4915373;29;20606;-71
2023/03/19 10:00:33;;;;;;;8.27;7.87;;;20.00;99.90;;;;;;4916079;29;20183;-72
2023/03/19 10:03:29;;;;;;;5.13;4.83;;;20.60;99.90;;;;;;4918909;29;20274;-70
2023/03/19 10:06:32;;;;;;;5.72;4.50;;;20.80;99.90;;;;;;4917261;29;20210;-71
2023/03/19 10:09:19;;;;;;;5.97;5.57;;;21.00;99.90;;;;;;4916218;29;20190;-71
2023/03/19 10:11:58;;;;;;;10.32;9.65;;;21.20;99.90;;;;;;4914839;29;20274;-71
2023/03/19 10:14:48;;;;;;;10.55;9.95;;;21.20;99.90;;;;;;4913291;29;20245;-72
2023/03/19 10:17:19;;;;;;;8.65;7.55;;;21.70;99.90;;;;;;4915121;29;20221;-72
2023/03/19 10:19:54;;;;;;;9.55;8.73;;;22.00;99.90;;;;;;4914627;29;20219;-71
2023/03/19 10:22:30;;;;;;;8.93;8.15;;;22.20;99.20;;;;;;4915047;29;20218;-72
2023/03/19 10:24:58;;;;;;;8.68;8.07;;;23.00;97.40;;;;;;4915128;29;20675;-72
2023/03/19 10:27:28;;;;;;;5.85;5.38;;;23.30;96.50;;;;;;4946296;28;20234;-71
2023/03/19 10:29:55;;;;;;;8.73;8.32;;;23.90;93.50;;;;;;4914744;29;20187;-71
2023/03/19 10:32:39;;;;;;;9.23;8.70;;;23.60;89.90;;;;;;4914944;29;20261;-72
2023/03/19 10:35:27;;;;;;;8.73;8.23;;;22.60;93.10;;;;;;4914356;29;20183;-71
2023/03/19 10:37:54;;;;;;;7.43;6.95;;;22.30;91.10;;;;;;4904652;29;20257;-72
2023/03/19 10:40:26;;;;;;;16.83;15.30;;;21.80;92.40;;;;;;4918316;29;20190;-71
2023/03/19 10:43:10;;;;;;;7.85;7.35;;;21.30;93.10;;;;;;4920310;29;20186;-72
2023/03/19 10:45:37;;;;;;;8.55;8.00;;;21.30;91.80;;;;;;4904518;29;20183;-72
2023/03/19 10:48:04;;;;;;;5.95;5.55;;;21.40;91.40;;;;;;4898754;29;20235;-71
2023/03/19 10:50:47;;;;;;;5.50;5.00;;;21.80;81.90;;;;;;4902773;29;20563;-70
2023/03/19 10:53:13;;;;;;;5.03;4.72;;;22.10;82.20;;;;;;4898570;29;20192;-71
2023/03/19 10:55:54;;;;;;;6.80;6.25;;;22.30;79.80;;;;;;4899220;29;20188;-70
2023/03/19 10:58:24;;;;;;;6.45;5.57;;;22.80;76.20;;;;;;4907643;29;20309;-69
2023/03/19 11:00:56;;;;;;;15.90;15.15;;;22.40;77.50;;;;;;4917921;29;20274;-67
2023/03/19 11:03:37;;;;;;;58.47;55.58;;;22.80;72.40;;;;;;4916886;29;20206;-68
2023/03/19 11:06:03;;;;;;;66.38;63.17;;;23.20;71.30;;;;;;4918008;29;20234;-68
2023/03/19 11:08:32;;;;;;;57.13;53.92;;;23.40;70.80;;;;;;4918061;29;20190;-68
2023/03/19 11:10:58;;;;;;;75.43;71.63;;;23.30;73.20;;;;;;4918102;29;20218;-68
2023/03/19 11:13:25;;;;;;;53.33;50.30;;;23.30;71.50;;;;;;4917593;29;20194;-69
2023/03/19 11:15:53;;;;;;;67.68;64.20;;;23.10;74.70;;;;;;4918432;29;20238;-69
2023/03/19 11:18:22;;;;;;;60.67;57.45;;;22.70;76.60;;;;;;4917795;29;20569;-67
2023/03/19 11:20:57;;;;;;;71.45;67.72;;;22.80;72.00;;;;;;4917591;29;20294;-68
2023/03/19 11:23:26;;;;;;;84.90;80.60;;;22.30;74.70;;;;;;4917975;29;20190;-70
2023/03/19 11:25:54;;;;;;;17.98;16.77;;;21.60;76.00;;;;;;4916751;29;20187;-69
2023/03/19 11:28:23;;;;;;;26.50;24.90;;;21.50;80.40;;;;;;4916785;29;20187;-67
2023/03/19 11:30:49;;;;;;;5.38;5.10;;;21.10;79.40;;;;;;4916479;29;20207;-67
2023/03/19 11:33:18;;;;;;;11.57;10.10;;;21.10;81.90;;;;;;4916591;29;20205;-67
2023/03/19 11:36:00;;;;;;;6.90;6.38;;;21.20;79.90;;;;;;4917767;29;20277;-69
2023/03/19 11:38:51;;;;;;;9.55;8.95;;;21.20;81.10;;;;;;4917183;29;20901;-69
2023/03/19 11:41:35;;;;;;;10.50;9.90;;;21.50;80.60;;;;;;4915882;29;20702;-68
2023/03/19 11:44:27;;;;;;;11.30;10.68;;;21.50;79.80;;;;;;4917602;29;20191;-68
2023/03/19 11:47:03;;;;;;;35.88;34.05;;;21.50;80.60;;;;;;4917152;29;20211;-68
2023/03/19 11:49:35;;;;;;;30.10;28.60;;;21.50;78.00;;;;;;4917036;29;20186;-68
2023/03/19 11:52:07;;;;;;;19.52;18.40;;;21.60;77.90;;;;;;4917509;29;20207;-69
2023/03/19 11:54:50;;;;;;;27.05;25.73;;;21.90;78.90;;;;;;4917275;29;20191;-68
2023/03/19 11:57:39;;;;;;;40.40;38.25;;;21.80;77.60;;;;;;4914510;29;20668;-68
2023/03/19 12:00:51;;;;;;;51.78;49.08;;;22.20;77.40;;;;;;4899185;29;20302;-68
2023/03/19 12:03:42;;;;;;;60.95;57.97;;;22.60;76.40;;;;;;4897417;29;20216;-67
2023/03/19 12:06:28;;;;;;;56.97;53.83;;;22.60;71.60;;;;;;4897779;29;20188;-68
2023/03/19 12:09:21;;;;;;;56.40;53.53;;;23.00;74.30;;;;;;4897267;29;20228;-68
2023/03/19 12:11:54;;;;;;;58.10;55.25;;;23.10;74.50;;;;;;4911843;29;20238;-68
2023/03/19 12:14:41;;;;;;;52.75;50.15;;;22.70;74.00;;;;;;4916511;29;20755;-68
2023/03/19 12:17:52;;;;;;;51.88;49.22;;;22.60;74.00;;;;;;4915852;29;20191;-68
2023/03/19 12:20:34;;;;;;;39.78;37.88;;;23.00;72.20;;;;;;4913298;29;20671;-68
2023/03/19 12:23:09;;;;;;;46.65;44.30;;;22.30;71.60;;;;;;4916437;29;20198;-68
2023/03/19 12:26:03;;;;;;;60.78;57.28;;;22.00;73.20;;;;;;4914445;29;20199;-67
2023/03/19 12:28:30;;;;;;;49.33;46.75;;;22.40;75.10;;;;;;4916288;29;20179;-67
2023/03/19 12:30:59;;;;;;;49.30;46.78;;;23.40;72.50;;;;;;4915001;29;20675;-67
2023/03/19 12:33:48;;;;;;;21.35;20.25;;;24.30;69.10;;;;;;4916319;29;20274;-68
2023/03/19 12:36:26;;;;;;;32.47;30.58;;;24.30;67.20;;;;;;4909356;29;20365;-68
2023/03/19 12:39:11;;;;;;;16.48;15.57;;;23.70;70.60;;;;;;4916030;29;20219;-68
2023/03/19 12:41:41;;;;;;;20.10;19.02;;;23.50;67.20;;;;;;4896279;29;20619;-68
2023/03/19 12:44:42;;;;;;;19.98;18.83;;;22.90;70.20;;;;;;4897396;29;20188;-68
2023/03/19 12:47:25;;;;;;;24.48;23.27;;;22.40;69.20;;;;;;4897150;29;20215;-68
2023/03/19 12:50:00;;;;;;;43.35;41.08;;;23.10;69.40;;;;;;4896582;29;20187;-68
2023/03/19 12:52:37;;;;;;;14.48;13.65;;;23.10;70.30;;;;;;4895496;29;20293;-68
2023/03/19 12:55:23;;;;;;;29.05;27.60;;;22.80;67.90;;;;;;4908386;29;20190;-68
2023/03/19 12:58:02;;;;;;;25.02;23.60;;;22.50;71.50;;;;;;4914476;29;20195;-68
2023/03/19 13:00:50;;;;;;;40.88;38.85;;;21.60;71.00;;;;;;4913658;29;20227;-67
2023/03/19 13:03:21;;;;;;;49.35;46.63;;;21.10;74.10;;;;;;4915696;29;20195;-67
2023/03/19 13:05:51;;;;;;;46.55;44.25;;;20.90;75.60;;;;;;4914103;29;20190;-67
2023/03/19 13:08:33;;;;;;;54.13;51.17;;;21.10;75.50;;;;;;4915132;29;20664;-67
2023/03/19 13:11:00;;;;;;;49.45;46.88;;;21.70;74.30;;;;;;4915285;29;20210;-68
2023/03/19 13:13:29;;;;;;;35.65;33.92;;;23.10;72.40;;;;;;4915575;29;20214;-68
2023/03/19 13:16:31;;;;;;;20.60;19.58;;;24.30;68.40;;;;;;4915398;29;20218;-68
2023/03/19 13:19:10;;;;;;;4.65;4.25;;;26.00;64.10;;;;;;4863235;29;20239;-68
2023/03/19 13:21:38;;;;;;;4.32;4.13;;;26.80;60.80;;;;;;4915161;29;20305;-67
2023/03/19 13:24:21;;;;;;;4.07;3.78;;;26.60;59.80;;;;;;4915133;29;20528;-69
2023/03/19 13:26:48;;;;;;;3.92;3.63;;;26.60;60.50;;;;;;4915289;29;20183;-67
2023/03/19 13:29:22;;;;;;;4.70;4.30;;;25.70;60.80;;;;;;4914898;29;20186;-67
2023/03/19 13:31:49;;;;;;;4.18;3.88;;;24.90;60.50;;;;;;4912465;29;20218;-67
2023/03/19 13:34:20;;;;;;;4.28;4.07;;;23.60;61.00;;;;;;4914105;29;20190;-67
2023/03/19 13:37:07;;;;;;;4.55;4.05;;;22.50;64.80;;;;;;4914791;29;20322;-67
2023/03/19 13:39:35;;;;;;;8.70;8.18;;;21.70;67.50;;;;;;4882476;29;20230;-67
2023/03/19 13:42:36;;;;;;;31.48;29.90;;;21.10;70.00;;;;;;4894502;29;20685;-67
2023/03/19 13:45:23;;;;;;;41.22;39.13;;;21.20;71.50;;;;;;4896212;29;20206;-67
2023/03/19 13:47:51;;;;;;;42.08;39.88;;;20.60;73.00;;;;;;4896152;29;20239;-65
2023/03/19 13:50:25;;;;;;;41.15;38.63;;;20.20;73.20;;;;;;4907746;29;20183;-65
2023/03/19 13:53:19;;;;;;;39.13;36.55;;;19.70;76.30;;;;;;4914603;29;20195;-68
2023/03/19 13:55:53;;;;;;;11.20;9.98;;;19.20;76.30;;;;;;4914749;29;20274;-68
2023/03/19 14:01:10;;;;;;;7.43;7.03;;;18.20;86.50;;;;;;4914778;29;20286;-69
2023/03/19 14:03:50;;;;;;;12.87;12.07;;;17.50;91.30;;;;;;4915060;29;20190;-69
2023/03/19 14:06:41;;;;;;;7.90;7.40;;;17.10;91.60;;;;;;4914831;29;20179;-69
2023/03/19 14:09:37;;;;;;;7.30;6.70;;;16.70;93.40;;;;;;4913278;29;20246;-69
2023/03/19 14:12:20;;;;;;;30.47;28.60;;;16.30;94.20;;;;;;4915024;29;20211;-69
2023/03/19 14:15:23;;;;;;;26.47;25.07;;;16.30;96.40;;;;;;4913778;29;20190;-70
2023/03/19 14:17:49;;;;;;;22.10;20.77;;;16.30;97.70;;;;;;4873268;29;20272;-69
2023/03/19 14:20:21;;;;;;;23.27;22.00;;;16.40;98.80;;;;;;4920220;29;20257;-70
2023/03/19 14:23:06;;;;;;;32.27;30.60;;;16.40;99.40;;;;;;4899948;29;20648;-69
2023/03/19 14:26:05;;;;;;;36.17;34.33;;;16.40;99.90;;;;;;4914635;29;20246;-70
2023/03/19 14:29:06;;;;;;;37.43;35.47;;;16.40;99.90;;;;;;4913975;29;20179;-70
2023/03/19 14:31:37;;;;;;;37.90;35.77;;;16.40;99.90;;;;;;4917315;29;20233;-70
2023/03/19 14:34:24;;;;;;;44.23;41.93;;;16.30;99.90;;;;;;4919894;29;20531;-70
2023/03/19 14:37:35;;;;;;;36.70;34.90;;;16.30;99.90;;;;;;4912989;29;20191;-69
2023/03/19 14:40:21;;;;;;;33.80;32.13;;;16.30;99.90;;;;;;4887330;29;20282;-69
2023/03/19 14:42:52;;;;;;;28.03;26.67;;;16.10;99.90;;;;;;4914629;29;20187;-69
2023/03/19 14:45:33;;;;;;;25.57;23.77;;;16.00;99.90;;;;;;4914706;29;20652;-69
2023/03/19 14:48:38;;;;;;;13.13;11.80;;;16.00;99.90;;;;;;4914894;29;20198;-69
2023/03/19 14:51:07;;;;;;;13.20;12.30;;;16.00;99.90;;;;;;4915603;29;20278;-69
2023/03/19 14:53:42;;;;;;;27.33;25.80;;;16.20;99.90;;;;;;4914518;29;20183;-71
2023/03/19 14:56:17;;;;;;;32.90;31.20;;;16.40;99.90;;;;;;4914342;29;20273;-70
2023/03/19 14:58:50;;;;;;;36.00;34.20;;;16.70;99.90;;;;;;4912876;29;20217;-69
2023/03/19 15:01:17;;;;;;;26.07;24.87;;;16.90;99.90;;;;;;4913888;29;20541;-69
2023/03/19 15:03:43;;;;;;;22.70;21.50;;;17.00;99.90;;;;;;4914217;29;20286;-69
2023/03/19 15:06:12;;;;;;;18.43;17.53;;;17.00;99.90;;;;;;4918239;29;20221;-70
2023/03/19 15:08:39;;;;;;;18.60;17.47;;;17.00;99.90;;;;;;4914629;29;20211;-71
2023/03/19 15:11:43;;;;;;;17.37;16.43;;;17.10;99.90;;;;;;4914541;29;20215;-70
2023/03/19 15:14:36;;;;;;;19.80;18.70;;;17.00;99.90;;;;;;4913403;29;20206;-71
2023/03/19 15:17:24;;;;;;;19.67;18.67;;;16.90;99.90;;;;;;4913473;29;20547;-69
2023/03/19 15:19:52;;;;;;;23.73;22.40;;;16.90;99.90;;;;;;4913616;29;20859;-69
2023/03/19 15:22:30;;;;;;;25.73;24.13;;;16.80;99.90;;;;;;4916533;29;20226;-70
2023/03/19 15:25:11;;;;;;;29.90;28.23;;;16.70;99.90;;;;;;4917878;29;20274;-69
2023/03/19 15:27:38;;;;;;;37.43;35.40;;;16.60;99.90;;;;;;4917779;29;20297;-69
2023/03/19 15:30:27;;;;;;;45.63;42.83;;;16.60;99.90;;;;;;4917504;29;20550;-69
2023/03/19 15:32:53;;;;;;;37.63;35.57;;;16.40;99.90;;;;;;4917413;29;20270;-68
2023/03/19 15:35:21;;;;;;;29.83;28.33;;;16.30;99.90;;;;;;4917651;29;20659;-69
2023/03/19 15:37:53;;;;;;;31.23;29.53;;;16.10;99.90;;;;;;4917660;29;20570;-69
2023/03/19 15:40:22;;;;;;;18.83;17.93;;;16.00;99.90;;;;;;4915941;29;20750;-69
2023/03/19 15:42:51;;;;;;;7.97;7.47;;;15.90;99.90;;;;;;4917433;29;20226;-69
2023/03/19 15:45:21;;;;;;;6.23;5.90;;;15.80;99.90;;;;;;4917364;29;20175;-70
2023/03/19 15:48:14;;;;;;;6.57;6.07;;;15.70;99.90;;;;;;4916814;29;20179;-70
2023/03/19 15:50:44;;;;;;;5.07;4.73;;;15.70;99.90;;;;;;4915544;29;20347;-70
2023/03/19 15:53:32;;;;;;;14.37;13.60;;;15.40;99.90;;;;;;4917483;29;20274;-71
2023/03/19 15:56:01;;;;;;;24.47;23.27;;;15.20;99.90;;;;;;4917296;29;20739;-69
2023/03/19 15:58:30;;;;;;;26.07;24.60;;;15.20;99.90;;;;;;4916926;29;20207;-69
2023/03/19 16:00:59;;;;;;;31.53;29.97;;;15.20;99.90;;;;;;4915735;29;20230;-68
2023/03/19 16:03:31;;;;;;;17.73;16.80;;;15.30;99.90;;;;;;4915568;29;20190;-68
2023/03/19 16:06:02;;;;;;;7.67;7.17;;;15.40;99.90;;;;;;4916309;29;20644;-68
2023/03/19 16:08:30;;;;;;;8.37;7.77;;;15.50;99.90;;;;;;4917145;29;20191;-69
2023/03/19 16:11:13;;;;;;;25.93;24.23;;;15.60;99.90;;;;;;4917406;29;20215;-69
2023/03/19 16:13:42;;;;;;;30.37;28.47;;;15.80;99.90;;;;;;4918834;29;20191;-69
2023/03/19 16:16:20;;;;;;;36.37;34.53;;;15.80;99.90;;;;;;4917213;29;20254;-69
2023/03/19 16:18:51;;;;;;;29.73;28.23;;;15.80;99.90;;;;;;4898072;29;20242;-69
2023/03/19 16:21:26;;;;;;;41.37;38.97;;;15.70;99.90;;;;;;4898154;29;20204;-69
2023/03/19 16:23:57;;;;;;;47.03;44.43;;;15.70;99.90;;;;;;4897115;29;20660;-69
2023/03/19 16:26:28;;;;;;;56.47;53.70;;;15.60;99.90;;;;;;4897073;29;20203;-71
2023/03/19 16:28:59;;;;;;;60.80;57.73;;;15.50;99.90;;;;;;4896713;29;20338;-69
2023/03/19 16:31:28;;;;;;;75.03;71.17;;;15.40;99.90;;;;;;4902889;29;20293;-68
2023/03/19 16:33:56;;;;;;;79.23;74.37;;;15.30;99.90;;;;;;4917079;29;20190;-69
2023/03/19 16:36:26;;;;;;;68.57;64.83;;;15.20;99.90;;;;;;4915779;29;20191;-69
2023/03/19 16:39:32;;;;;;;51.83;49.13;;;15.00;99.90;;;;;;4915652;29;20842;-69
2023/03/19 16:42:07;;;;;;;42.37;40.20;;;14.90;99.90;;;;;;4843149;29;20209;-69
2023/03/19 16:44:37;;;;;;;32.13;30.37;;;14.70;99.90;;;;;;4858332;29;20757;-68
2023/03/19 16:47:09;;;;;;;14.50;13.77;;;14.60;99.90;;;;;;4890665;29;20668;-69
2023/03/19 16:49:35;;;;;;;10.13;9.63;;;14.50;99.90;;;;;;4915292;29;20201;-69
2023/03/19 16:52:01;;;;;;;8.30;7.70;;;14.40;99.90;;;;;;4915501;29;20207;-70
2023/03/19 16:54:27;;;;;;;7.30;6.60;;;14.30;99.90;;;;;;4916640;29;20182;-70
2023/03/19 16:56:53;;;;;;;6.47;6.07;;;14.30;99.90;;;;;;4916646;29;20183;-70
2023/03/19 16:59:26;;;;;;;6.33;6.03;;;14.20;99.90;;;;;;4916071;29;20302;-70
2023/03/19 17:01:52;;;;;;;5.93;5.53;;;14.20;99.90;;;;;;4915750;29;20222;-70
2023/03/19 17:04:18;;;;;;;5.13;4.87;;;14.10;99.90;;;;;;4916173;29;20179;-69